createdAt,value
2023-05-02T00:01:22.908Z,2.75
2023-05-02T00:03:50.211Z,2.28
2023-05-02T00:06:17.752Z,2.45
2023-05-02T00:08:45.203Z,2.72
2023-05-02T00:11:12.356Z,2.42
2023-05-02T00:13:39.643Z,2.13
2023-05-02T00:16:06.556Z,2.13
2023-05-02T00:18:33.431Z,2.42
2023-05-02T00:21:00.971Z,2.63
2023-05-02T00:23:28.208Z,2.13
2023-05-02T00:25:54.971Z,2.38
2023-05-02T00:28:22.368Z,2.50
2023-05-02T00:30:49.695Z,2.30
2023-05-02T00:33:17.186Z,2.35
2023-05-02T00:35:44.529Z,2.40
2023-05-02T00:38:11.516Z,2.50
2023-05-02T00:40:47.104Z,2.65
2023-05-02T00:43:15.231Z,2.42
2023-05-02T00:45:46.983Z,2.28
2023-05-02T00:48:15.251Z,3.10
2023-05-02T00:50:43.976Z,3.10
2023-05-02T00:53:11.810Z,2.83
2023-05-02T00:55:39.293Z,2.90
2023-05-02T00:58:11.490Z,2.00
2023-05-02T01:01:05.686Z,2.38
2023-05-02T01:03:52.177Z,2.35
2023-05-02T01:06:35.908Z,2.90
2023-05-02T01:09:08.903Z,2.38
2023-05-02T01:11:44.969Z,3.10
2023-05-02T01:14:13.110Z,2.70
2023-05-02T01:16:42.613Z,2.72
2023-05-02T01:19:20.485Z,2.47
2023-05-02T01:21:49.783Z,2.45
2023-05-02T01:24:28.176Z,2.55
2023-05-02T01:27:32.966Z,2.85
2023-05-02T01:30:02.739Z,3.63
2023-05-02T01:32:33.797Z,2.85
2023-05-02T01:35:02.980Z,3.75
2023-05-02T01:37:33.277Z,2.88
2023-05-02T01:40:04.238Z,2.22
2023-05-02T01:42:33.144Z,2.70
2023-05-02T01:45:01.621Z,2.88
2023-05-02T01:47:32.411Z,2.53
2023-05-02T01:50:02.200Z,2.47
2023-05-02T01:52:30.962Z,3.13
2023-05-02T01:55:01.746Z,2.53
2023-05-02T01:57:28.434Z,2.67
2023-05-02T01:59:57.462Z,2.83
2023-05-02T02:02:27.948Z,2.78
2023-05-02T02:04:56.886Z,3.75
2023-05-02T02:07:24.502Z,2.30
2023-05-02T02:09:53.476Z,2.25
2023-05-02T02:12:37.293Z,2.75
2023-05-02T02:15:10.481Z,2.90
2023-05-02T02:17:40.769Z,3.33
2023-05-02T02:20:10.615Z,2.67
2023-05-02T02:22:41.051Z,3.30
2023-05-02T02:25:11.720Z,2.78
2023-05-02T02:27:39.816Z,2.65
2023-05-02T02:30:08.940Z,2.72
2023-05-02T02:32:35.926Z,2.53
2023-05-02T02:35:03.825Z,1.98
2023-05-02T02:37:35.530Z,2.80
2023-05-02T02:40:44.115Z,2.65
2023-05-02T02:43:21.079Z,2.63
2023-05-02T02:46:12.443Z,2.35
2023-05-02T02:49:03.822Z,2.35
2023-05-02T02:51:39.141Z,2.72
2023-05-02T02:54:35.646Z,2.63
2023-05-02T02:57:15.911Z,3.25
2023-05-02T02:59:54.086Z,3.10
2023-05-02T03:02:27.499Z,2.80
2023-05-02T03:04:56.732Z,2.80
2023-05-02T03:07:24.341Z,2.78
2023-05-02T03:09:51.037Z,2.72
2023-05-02T03:12:17.677Z,2.75
2023-05-02T03:14:44.583Z,2.40
2023-05-02T03:17:11.267Z,2.20
2023-05-02T03:19:38.576Z,2.75
2023-05-02T03:22:05.841Z,2.80
2023-05-02T03:24:33.062Z,2.72
2023-05-02T03:26:59.976Z,2.58
2023-05-02T03:29:28.146Z,2.60
2023-05-02T03:31:54.795Z,2.60
2023-05-02T03:34:22.461Z,2.75
2023-05-02T03:36:49.354Z,2.42
2023-05-02T03:39:16.753Z,2.40
2023-05-02T03:41:44.056Z,3.08
2023-05-02T03:44:11.613Z,2.75
2023-05-02T03:46:38.428Z,2.90
2023-05-02T03:49:05.199Z,2.60
2023-05-02T03:51:34.201Z,3.88
2023-05-02T03:54:05.499Z,2.80
2023-05-02T03:56:32.842Z,3.08
2023-05-02T03:58:59.784Z,2.80
2023-05-02T04:01:26.613Z,2.70
2023-05-02T04:03:53.937Z,2.97
2023-05-02T04:06:21.258Z,3.10
2023-05-02T04:08:48.721Z,2.97
2023-05-02T04:11:16.264Z,3.47
2023-05-02T04:13:43.041Z,3.72
2023-05-02T04:16:10.412Z,3.38
2023-05-02T04:18:37.832Z,3.50
2023-05-02T04:21:05.151Z,2.90
2023-05-02T04:23:33.107Z,2.25
2023-05-02T04:25:59.814Z,2.65
2023-05-02T04:28:27.132Z,3.30
2023-05-02T04:30:53.983Z,2.72
2023-05-02T04:33:21.022Z,3.60
2023-05-02T04:35:48.280Z,3.05
2023-05-02T04:38:15.370Z,4.35
2023-05-02T04:40:42.754Z,3.50
2023-05-02T04:43:10.086Z,4.00
2023-05-02T04:45:37.574Z,3.10
2023-05-02T04:48:05.510Z,3.15
2023-05-02T04:50:32.572Z,3.53
2023-05-02T04:52:59.954Z,3.55
2023-05-02T04:55:27.319Z,4.18
2023-05-02T04:57:54.156Z,4.25
2023-05-02T05:00:22.238Z,4.00
2023-05-02T05:02:49.172Z,4.05
2023-05-02T05:05:16.892Z,3.40
2023-05-02T05:07:44.202Z,4.03
2023-05-02T05:10:11.779Z,3.38
2023-05-02T05:12:39.193Z,3.85
2023-05-02T05:15:07.527Z,3.92
2023-05-02T05:17:35.126Z,3.42
2023-05-02T05:20:02.777Z,3.33
2023-05-02T05:22:30.043Z,4.75
2023-05-02T05:24:57.209Z,3.33
2023-05-02T05:27:24.442Z,3.55
2023-05-02T05:29:51.708Z,4.32
2023-05-02T05:32:19.008Z,4.35
2023-05-02T05:34:45.718Z,3.92
2023-05-02T05:37:13.070Z,3.67
2023-05-02T05:39:40.251Z,4.45
2023-05-02T05:42:09.592Z,3.65
2023-05-02T05:44:37.125Z,3.25
2023-05-02T05:47:04.022Z,3.35
2023-05-02T05:49:32.025Z,3.17
2023-05-02T05:51:59.676Z,2.55
2023-05-02T05:54:26.812Z,2.95
2023-05-02T05:56:54.481Z,3.08
2023-05-02T05:59:21.336Z,2.33
2023-05-02T06:01:48.172Z,2.50
2023-05-02T06:04:15.494Z,2.60
2023-05-02T06:06:43.039Z,2.10
2023-05-02T06:09:09.856Z,2.60
2023-05-02T06:11:39.639Z,2.70
2023-05-02T06:14:07.187Z,3.10
2023-05-02T06:16:34.807Z,4.75
2023-05-02T06:19:02.055Z,7.57
2023-05-02T06:21:28.899Z,6.10
2023-05-02T06:23:55.812Z,3.40
2023-05-02T06:26:22.905Z,2.88
2023-05-02T06:28:50.250Z,2.63
2023-05-02T06:31:17.286Z,3.35
2023-05-02T06:33:44.516Z,3.00
2023-05-02T06:36:11.270Z,2.60
2023-05-02T06:38:38.153Z,2.70
2023-05-02T06:41:05.730Z,2.85
2023-05-02T06:43:33.221Z,2.40
2023-05-02T06:46:01.622Z,2.97
2023-05-02T06:48:28.895Z,2.83
2023-05-02T06:50:56.167Z,2.78
2023-05-02T06:53:23.426Z,2.83
2023-05-02T06:55:50.487Z,2.50
2023-05-02T06:58:17.321Z,2.30
2023-05-02T07:00:44.405Z,3.03
2023-05-02T07:03:14.184Z,3.17
2023-05-02T07:05:41.664Z,3.58
2023-05-02T07:08:09.303Z,2.58
2023-05-02T07:10:36.249Z,2.72
2023-05-02T07:13:02.958Z,2.47
2023-05-02T07:15:29.682Z,2.78
2023-05-02T07:17:56.471Z,1.92
2023-05-02T07:20:23.830Z,2.40
2023-05-02T07:22:50.719Z,2.22
2023-05-02T07:25:18.012Z,2.22
2023-05-02T07:27:44.891Z,2.22
2023-05-02T07:30:12.861Z,2.10
2023-05-02T07:32:40.227Z,2.15
2023-05-02T07:35:07.481Z,2.05
2023-05-02T07:37:38.332Z,2.40
2023-05-02T07:40:06.203Z,2.28
2023-05-02T07:42:33.613Z,2.42
2023-05-02T07:45:00.406Z,2.00
2023-05-02T07:47:27.333Z,2.00
2023-05-02T07:49:55.470Z,1.95
2023-05-02T07:52:22.782Z,2.10
2023-05-02T07:54:50.001Z,2.17
2023-05-02T07:57:17.058Z,2.20
2023-05-02T07:59:44.173Z,1.92
2023-05-02T08:02:13.424Z,2.58
2023-05-02T08:04:42.674Z,2.03
2023-05-02T08:07:09.529Z,3.40
2023-05-02T08:09:36.712Z,2.50
2023-05-02T08:12:06.431Z,2.08
2023-05-02T08:14:33.732Z,2.65
2023-05-02T08:17:00.879Z,2.00
2023-05-02T08:19:28.424Z,2.50
2023-05-02T08:21:55.388Z,2.00
2023-05-02T08:24:23.058Z,2.35
2023-05-02T08:26:50.501Z,2.08
2023-05-02T08:29:17.456Z,2.33
2023-05-02T08:31:44.872Z,2.17
2023-05-02T08:34:11.633Z,2.10
2023-05-02T08:36:38.356Z,2.22
2023-05-02T08:39:05.133Z,4.10
2023-05-02T08:41:32.056Z,2.40
2023-05-02T08:44:00.516Z,2.25
2023-05-02T08:46:29.140Z,2.30
2023-05-02T08:48:59.255Z,1.95
2023-05-02T08:51:29.517Z,2.20
2023-05-02T08:53:57.423Z,1.90
2023-05-02T08:56:25.589Z,2.38
2023-05-02T08:58:52.941Z,2.30
2023-05-02T09:01:24.492Z,2.40
2023-05-02T09:03:52.856Z,2.10
2023-05-02T09:06:22.092Z,1.80
2023-05-02T09:08:50.913Z,2.63
2023-05-02T09:11:18.481Z,3.00
2023-05-02T09:13:53.175Z,2.17
2023-05-02T09:16:25.976Z,1.80
2023-05-02T09:18:58.497Z,1.90
2023-05-02T09:21:27.749Z,2.13
2023-05-02T09:23:59.660Z,1.75
2023-05-02T09:26:31.619Z,2.00
2023-05-02T09:29:01.484Z,1.60
2023-05-02T09:34:17.672Z,2.22
2023-05-02T09:36:47.016Z,2.30
2023-05-02T09:39:16.249Z,2.10
2023-05-02T09:41:45.739Z,2.17
2023-05-02T09:44:14.486Z,2.05
2023-05-02T09:46:43.395Z,2.03
2023-05-02T09:49:10.852Z,2.63
2023-05-02T09:51:38.403Z,2.10
2023-05-02T09:54:05.666Z,1.83
2023-05-02T09:56:32.562Z,2.88
2023-05-02T09:59:16.632Z,2.05
2023-05-02T10:01:43.756Z,2.88
2023-05-02T10:04:16.688Z,2.20
2023-05-02T10:06:48.765Z,2.28
2023-05-02T10:09:19.679Z,2.30
2023-05-02T10:11:51.311Z,2.03
2023-05-02T10:14:20.551Z,2.47
2023-05-02T10:16:56.969Z,2.22
2023-05-02T10:19:33.976Z,2.58
2023-05-02T10:22:01.934Z,2.65
2023-05-02T10:24:30.881Z,4.43
2023-05-02T10:26:57.676Z,2.80
2023-05-02T10:29:24.476Z,2.65
2023-05-02T10:31:53.797Z,2.78
2023-05-02T10:34:21.350Z,2.90
2023-05-02T10:36:48.264Z,3.70
2023-05-02T10:39:15.755Z,2.60
2023-05-02T10:41:44.032Z,3.38
2023-05-02T10:44:11.247Z,2.67
2023-05-02T10:46:43.601Z,3.22
2023-05-02T10:49:12.724Z,2.80
2023-05-02T10:51:41.536Z,4.90
2023-05-02T10:54:20.760Z,3.25
2023-05-02T10:57:00.471Z,2.42
2023-05-02T10:59:29.947Z,2.47
2023-05-02T11:01:57.938Z,2.95
2023-05-02T11:04:24.856Z,2.65
2023-05-02T11:06:59.413Z,2.25
2023-05-02T11:09:29.093Z,2.13
2023-05-02T11:11:57.385Z,4.88
2023-05-02T11:14:27.690Z,2.42
2023-05-02T11:17:06.968Z,3.22
2023-05-02T11:19:36.332Z,4.03
2023-05-02T11:22:19.512Z,2.80
2023-05-02T11:24:50.323Z,2.85
2023-05-02T11:27:38.863Z,2.35
2023-05-02T11:30:07.320Z,3.08
2023-05-02T11:32:50.133Z,2.15
2023-05-02T11:35:33.046Z,3.50
2023-05-02T11:38:02.564Z,2.40
2023-05-02T11:40:30.440Z,2.92
2023-05-02T11:42:59.081Z,4.43
2023-05-02T11:45:37.018Z,2.40
2023-05-02T11:48:11.306Z,2.80
2023-05-02T11:50:52.823Z,2.58
2023-05-02T11:53:25.535Z,2.40
2023-05-02T11:55:56.642Z,2.65
2023-05-02T11:58:26.694Z,2.75
2023-05-02T12:00:54.137Z,2.33
2023-05-02T12:03:28.670Z,2.50
2023-05-02T12:05:56.650Z,2.25
2023-05-02T12:08:28.144Z,2.10
2023-05-02T12:10:58.437Z,2.20
2023-05-02T12:13:26.664Z,2.20
2023-05-02T12:15:55.066Z,2.58
2023-05-02T12:18:27.227Z,4.22
2023-05-02T12:20:56.608Z,2.92
2023-05-02T12:23:26.555Z,2.85
2023-05-02T12:25:53.368Z,3.35
2023-05-02T12:28:21.156Z,3.00
2023-05-02T12:30:50.789Z,3.60
2023-05-02T12:33:18.541Z,3.13
2023-05-02T12:35:48.379Z,3.38
2023-05-02T12:38:23.231Z,5.85
2023-05-02T12:40:54.762Z,3.50
2023-05-02T12:43:24.832Z,3.42
2023-05-02T12:46:10.407Z,3.25
2023-05-02T12:48:37.493Z,3.28
2023-05-02T12:51:05.034Z,3.25
2023-05-02T12:53:42.511Z,3.40
2023-05-02T12:56:10.669Z,3.10
2023-05-02T12:58:46.072Z,3.33
2023-05-02T13:01:14.424Z,3.60
2023-05-02T13:03:42.959Z,3.63
2023-05-02T13:06:10.433Z,4.00
2023-05-02T13:08:37.489Z,3.85
2023-05-02T13:11:04.746Z,3.47
2023-05-02T13:13:32.837Z,3.20
2023-05-02T13:16:00.025Z,3.20
2023-05-02T13:18:28.438Z,3.40
2023-05-02T13:20:55.598Z,3.22
2023-05-02T13:23:22.666Z,4.13
2023-05-02T13:25:49.688Z,3.05
2023-05-02T13:28:17.005Z,3.00
2023-05-02T13:30:44.161Z,3.10
2023-05-02T13:33:11.206Z,3.17
2023-05-02T13:35:38.306Z,2.80
2023-05-02T13:38:05.084Z,2.75
2023-05-02T13:40:32.208Z,3.33
2023-05-02T13:42:59.473Z,2.97
2023-05-02T13:45:26.538Z,3.20
2023-05-02T13:47:53.207Z,4.03
2023-05-02T13:50:20.227Z,3.60
2023-05-02T13:52:49.039Z,3.17
2023-05-02T13:55:16.282Z,3.65
2023-05-02T13:57:43.137Z,3.42
2023-05-02T14:00:11.168Z,3.38
2023-05-02T14:02:39.570Z,4.00
2023-05-02T14:05:07.102Z,3.78
2023-05-02T14:07:33.823Z,3.20
2023-05-02T14:10:00.713Z,3.22
2023-05-02T14:12:28.768Z,3.20
2023-05-02T14:14:55.654Z,3.00
2023-05-02T14:17:25.557Z,2.58
2023-05-02T14:19:52.368Z,3.00
2023-05-02T14:22:19.003Z,2.72
2023-05-02T14:24:46.352Z,3.05
2023-05-02T14:27:18.203Z,3.38
2023-05-02T14:29:46.482Z,2.97
2023-05-02T14:32:14.714Z,2.88
2023-05-02T14:34:42.075Z,2.90
2023-05-02T14:37:09.397Z,3.33
2023-05-02T14:39:36.957Z,3.20
2023-05-02T14:42:04.962Z,2.92
2023-05-02T14:44:32.093Z,2.97
2023-05-02T14:46:59.731Z,3.00
2023-05-02T14:49:27.881Z,2.92
2023-05-02T14:51:56.421Z,3.22
2023-05-02T14:54:30.775Z,3.15
2023-05-02T14:57:00.137Z,2.95
2023-05-02T14:59:31.477Z,3.05
2023-05-02T15:01:59.004Z,2.75
2023-05-02T15:04:27.257Z,3.30
2023-05-02T15:06:55.833Z,2.90
2023-05-02T15:09:23.750Z,2.58
2023-05-02T15:11:51.022Z,2.42
2023-05-02T15:14:18.209Z,2.50
2023-05-02T15:16:45.050Z,2.85
2023-05-02T15:19:12.309Z,2.60
2023-05-02T15:21:39.612Z,2.55
2023-05-02T15:24:07.132Z,2.30
2023-05-02T15:26:34.569Z,2.00
2023-05-02T15:29:01.306Z,2.65
2023-05-02T15:31:28.595Z,2.47
2023-05-02T15:33:56.020Z,2.60
2023-05-02T15:36:27.200Z,2.53
2023-05-02T15:38:54.284Z,2.70
2023-05-02T15:41:21.122Z,2.67
2023-05-02T15:43:48.288Z,2.78
2023-05-02T15:46:15.831Z,2.50
2023-05-02T15:48:42.563Z,2.88
2023-05-02T15:51:12.617Z,2.33
2023-05-02T15:53:42.576Z,2.65
2023-05-02T15:56:10.744Z,2.25
2023-05-02T15:58:38.227Z,2.20
2023-05-02T16:01:06.326Z,2.25
2023-05-02T16:03:34.412Z,2.10
2023-05-02T16:06:01.470Z,2.50
2023-05-02T16:08:28.757Z,2.00
2023-05-02T16:10:56.305Z,1.98
2023-05-02T16:13:23.687Z,2.55
2023-05-02T16:15:52.576Z,2.72
2023-05-02T16:18:19.380Z,2.40
2023-05-02T16:20:47.915Z,2.80
2023-05-02T16:23:14.611Z,2.78
2023-05-02T16:25:41.365Z,2.47
2023-05-02T16:28:07.969Z,3.00
2023-05-02T16:30:37.879Z,3.13
2023-05-02T16:33:04.619Z,2.40
2023-05-02T16:35:32.049Z,2.47
2023-05-02T16:37:58.699Z,2.95
2023-05-02T16:40:27.422Z,3.30
2023-05-02T16:42:54.998Z,2.90
2023-05-02T16:45:22.353Z,3.15
2023-05-02T16:47:49.610Z,2.85
2023-05-02T16:50:16.439Z,2.97
2023-05-02T16:52:44.852Z,2.55
2023-05-02T16:55:11.480Z,3.42
2023-05-02T16:57:39.520Z,3.25
2023-05-02T17:00:11.448Z,3.20
2023-05-02T17:02:38.781Z,3.40
2023-05-02T17:05:05.871Z,3.50
2023-05-02T17:07:32.662Z,3.08
2023-05-02T17:10:00.106Z,3.20
2023-05-02T17:12:28.082Z,3.00
2023-05-02T17:14:54.750Z,3.58
2023-05-02T17:17:23.814Z,3.20
2023-05-02T17:19:50.909Z,3.78
2023-05-02T17:22:19.429Z,4.18
2023-05-02T17:24:48.587Z,4.65
2023-05-02T17:27:16.088Z,4.40
2023-05-02T17:29:42.913Z,4.80
2023-05-02T17:32:11.426Z,6.05
2023-05-02T17:34:38.389Z,5.72
2023-05-02T17:37:05.491Z,6.88
2023-05-02T17:39:32.588Z,6.40
2023-05-02T17:41:59.810Z,6.05
2023-05-02T17:44:26.502Z,6.22
2023-05-02T17:46:54.114Z,5.72
2023-05-02T17:49:22.338Z,5.40
2023-05-02T17:51:49.056Z,5.85
2023-05-02T17:54:16.597Z,5.55
2023-05-02T17:56:44.225Z,5.18
2023-05-02T17:59:12.220Z,5.38
2023-05-02T18:01:40.143Z,4.55
2023-05-02T18:04:07.066Z,4.55
2023-05-02T18:06:34.942Z,4.10
2023-05-02T18:09:01.882Z,4.35
2023-05-02T18:11:29.427Z,4.57
2023-05-02T18:13:57.196Z,4.82
2023-05-02T18:16:24.828Z,4.50
2023-05-02T18:18:51.984Z,4.28
2023-05-02T18:21:23.204Z,4.80
2023-05-02T18:23:50.566Z,5.40
2023-05-02T18:26:17.825Z,5.38
2023-05-02T18:28:46.886Z,4.68
2023-05-02T18:31:17.925Z,4.88
2023-05-02T18:33:46.038Z,5.43
2023-05-02T18:36:13.821Z,5.43
2023-05-02T18:38:42.266Z,4.78
2023-05-02T18:41:09.817Z,5.05
2023-05-02T18:43:36.598Z,5.00
2023-05-02T18:46:03.892Z,5.40
2023-05-02T18:48:31.315Z,6.32
2023-05-02T18:50:58.904Z,5.55
2023-05-02T18:53:26.934Z,5.68
2023-05-02T18:55:55.080Z,5.55
2023-05-02T18:58:23.142Z,5.50
2023-05-02T19:00:50.374Z,5.40
2023-05-02T19:03:17.988Z,5.60
2023-05-02T19:05:46.150Z,5.80
2023-05-02T19:08:12.930Z,7.47
2023-05-02T19:10:40.144Z,6.07
2023-05-02T19:13:07.759Z,5.38
2023-05-02T19:15:35.120Z,5.78
2023-05-02T19:18:02.491Z,5.65
2023-05-02T19:20:30.764Z,6.13
2023-05-02T19:23:17.617Z,53.38
2023-05-02T19:25:47.207Z,20.25
2023-05-02T19:28:17.852Z,39.53
2023-05-02T19:30:45.169Z,47.22
2023-05-02T19:33:12.580Z,18.83
2023-05-02T19:35:39.935Z,12.48
2023-05-02T19:38:07.219Z,15.07
2023-05-02T19:40:34.556Z,23.13
2023-05-02T19:43:01.790Z,10.05
2023-05-02T19:45:28.715Z,10.70
2023-05-02T19:47:56.397Z,8.73
2023-05-02T19:50:26.344Z,8.38
2023-05-02T19:52:53.666Z,9.45
2023-05-02T19:55:20.959Z,9.30
2023-05-02T19:57:48.592Z,8.45
2023-05-02T20:00:16.824Z,8.30
2023-05-02T20:02:43.745Z,7.63
2023-05-02T20:05:11.249Z,7.75
2023-05-02T20:07:38.647Z,8.38
2023-05-02T20:10:06.361Z,9.25
2023-05-02T20:12:33.511Z,12.77
2023-05-02T20:15:00.671Z,10.35
2023-05-02T20:17:27.900Z,8.05
2023-05-02T20:19:54.782Z,7.80
2023-05-02T20:22:21.481Z,7.45
2023-05-02T20:24:48.272Z,7.38
2023-05-02T20:27:15.517Z,8.30
2023-05-02T20:29:42.859Z,7.90
2023-05-02T20:32:09.697Z,7.32
2023-05-02T20:34:36.985Z,8.18
2023-05-02T20:37:07.028Z,8.65
2023-05-02T20:39:34.332Z,8.38
2023-05-02T20:42:01.727Z,8.57
2023-05-02T20:44:30.485Z,9.13
2023-05-02T20:46:57.236Z,6.80
2023-05-02T20:49:24.313Z,7.05
2023-05-02T20:51:51.758Z,6.68
2023-05-02T20:54:19.225Z,7.18
2023-05-02T20:56:46.847Z,6.43
2023-05-02T20:59:13.981Z,6.95
2023-05-02T21:01:41.474Z,5.93
2023-05-02T21:04:08.274Z,6.60
2023-05-02T21:06:35.041Z,6.82
2023-05-02T21:09:02.517Z,6.40
2023-05-02T21:11:29.836Z,6.95
2023-05-02T21:13:56.672Z,6.47
2023-05-02T21:16:23.617Z,6.65
2023-05-02T21:18:51.117Z,6.95
2023-05-02T21:21:17.947Z,6.65
2023-05-02T21:23:45.226Z,6.35
2023-05-02T21:26:12.546Z,6.35
2023-05-02T21:28:39.345Z,5.55
2023-05-02T21:31:07.941Z,5.82
2023-05-02T21:33:34.943Z,6.10
2023-05-02T21:36:01.836Z,6.15
2023-05-02T21:38:29.971Z,6.97
2023-05-02T21:41:01.124Z,5.78
2023-05-02T21:43:30.323Z,6.05
2023-05-02T21:45:57.711Z,6.05
2023-05-02T21:48:24.850Z,6.50
2023-05-02T21:50:52.158Z,5.97
2023-05-02T21:53:19.646Z,6.82
2023-05-02T21:55:46.924Z,6.25
2023-05-02T21:58:14.356Z,6.22
2023-05-02T22:00:42.067Z,7.05
2023-05-02T22:03:12.011Z,7.03
2023-05-02T22:05:40.305Z,6.80
2023-05-02T22:08:13.117Z,6.50
2023-05-02T22:10:43.023Z,7.00
2023-05-02T22:13:15.350Z,7.05
2023-05-02T22:15:48.903Z,7.20
2023-05-02T22:18:17.704Z,6.80
2023-05-02T22:20:45.987Z,6.80
2023-05-02T22:23:14.006Z,7.55
2023-05-02T22:25:48.100Z,6.55
2023-05-02T22:28:15.576Z,7.50
2023-05-02T22:30:45.889Z,7.32
2023-05-02T22:33:14.546Z,8.70
2023-05-02T22:35:42.024Z,8.20
2023-05-02T22:38:11.970Z,8.27
2023-05-02T22:40:38.636Z,8.77
2023-05-02T22:43:05.837Z,8.13
2023-05-02T22:45:33.195Z,8.27
2023-05-02T22:48:00.955Z,8.60
2023-05-02T22:50:28.823Z,9.65
2023-05-02T22:52:57.429Z,9.02
2023-05-02T22:55:24.698Z,8.38
2023-05-02T22:57:52.402Z,8.70
2023-05-02T23:00:19.088Z,8.68
2023-05-02T23:02:45.935Z,9.75
2023-05-02T23:05:13.330Z,9.00
2023-05-02T23:07:40.623Z,8.95
2023-05-02T23:10:08.464Z,9.80
2023-05-02T23:12:35.638Z,9.70
2023-05-02T23:15:02.915Z,10.05
2023-05-02T23:17:29.771Z,10.27
2023-05-02T23:19:57.718Z,10.18
2023-05-02T23:22:25.143Z,9.70
2023-05-02T23:24:51.885Z,10.27
2023-05-02T23:27:18.606Z,10.57
2023-05-02T23:29:48.556Z,9.35
2023-05-02T23:32:16.871Z,9.40
2023-05-02T23:34:44.656Z,10.27
2023-05-02T23:37:13.376Z,11.48
2023-05-02T23:39:40.900Z,10.20
2023-05-02T23:42:08.314Z,11.15
2023-05-02T23:44:35.541Z,11.57
2023-05-02T23:47:02.696Z,11.52
2023-05-02T23:49:29.972Z,11.52
2023-05-02T23:51:57.290Z,10.68
2023-05-02T23:54:25.032Z,11.55
2023-05-02T23:56:54.032Z,11.60
2023-05-02T23:59:21.270Z,12.55
